createdAt,value
2019-02-17T00:00:12.513Z,37.3
2019-02-17T00:01:02.320Z,37.3
2019-02-17T00:01:52.370Z,37.3
2019-02-17T00:02:42.683Z,37.3
2019-02-17T00:03:32.490Z,37.3
2019-02-17T00:04:22.526Z,37.3
2019-02-17T00:05:12.092Z,37.3
2019-02-17T00:06:03.254Z,37.3
2019-02-17T00:06:53.462Z,37.3
2019-02-17T00:07:42.968Z,37.3
2019-02-17T00:08:32.287Z,37.3
2019-02-17T00:09:22.965Z,37.3
2019-02-17T00:10:12.595Z,37.3
2019-02-17T00:11:03.753Z,37.3
2019-02-17T00:11:53.067Z,37.3
2019-02-17T00:12:43.377Z,37.3
2019-02-17T00:13:32.351Z,37.2
2019-02-17T00:14:26.372Z,37.2
2019-02-17T00:15:13.504Z,37.2
2019-02-17T00:16:03.627Z,37.2
2019-02-17T00:16:54.424Z,37.2
2019-02-17T00:17:44.505Z,37.2
2019-02-17T00:18:33.764Z,37.2
2019-02-17T00:19:24.354Z,37.1
2019-02-17T00:20:14.179Z,37.1
2019-02-17T00:21:03.644Z,37.1
2019-02-17T00:21:53.968Z,37.1
2019-02-17T00:22:44.277Z,37.1
2019-02-17T00:23:34.348Z,37.1
2019-02-17T00:24:24.391Z,37.1
2019-02-17T00:25:14.004Z,37.1
2019-02-17T00:26:04.254Z,37.1
2019-02-17T00:26:54.059Z,37.1
2019-02-17T00:27:44.627Z,37.1
2019-02-17T00:28:34.679Z,37.1
2019-02-17T00:29:25.316Z,37.1
2019-02-17T00:30:15.074Z,37.1
2019-02-17T00:31:04.884Z,37.1
2019-02-17T00:31:54.966Z,37.1
2019-02-17T00:32:45.259Z,37.1
2019-02-17T00:33:34.557Z,37
2019-02-17T00:34:25.448Z,37
2019-02-17T00:35:14.112Z,37
2019-02-17T00:36:05.278Z,37
2019-02-17T00:36:54.726Z,37
2019-02-17T00:37:45.606Z,36.9
2019-02-17T00:38:35.986Z,37
2019-02-17T00:39:25.463Z,36.9
2019-02-17T00:40:15.786Z,36.9
2019-02-17T00:41:05.599Z,36.9
2019-02-17T00:41:55.608Z,36.9
2019-02-17T00:42:45.391Z,36.9
2019-02-17T00:43:35.526Z,36.9
2019-02-17T00:44:26.124Z,36.9
2019-02-17T00:45:15.590Z,36.9
2019-02-17T00:46:05.615Z,36.9
2019-02-17T00:46:56.624Z,36.9
2019-02-17T00:47:45.477Z,36.9
2019-02-17T00:48:36.075Z,36.9
2019-02-17T00:49:26.170Z,36.9
2019-02-17T00:50:16.520Z,36.9
2019-02-17T00:51:06.512Z,36.9
2019-02-17T00:51:56.349Z,36.9
2019-02-17T00:52:46.137Z,36.9
2019-02-17T00:53:36.202Z,36.9
2019-02-17T00:54:26.767Z,36.9
2019-02-17T00:55:17.097Z,36.8
2019-02-17T00:56:06.653Z,36.8
2019-02-17T00:56:56.117Z,36.8
2019-02-17T00:57:46.454Z,36.8
2019-02-17T00:58:37.049Z,36.8
2019-02-17T00:59:27.145Z,36.8
2019-02-17T01:00:16.939Z,36.8
2019-02-17T01:01:06.651Z,36.8
2019-02-17T01:01:56.516Z,36.8
2019-02-17T01:02:47.338Z,36.8
2019-02-17T01:03:37.197Z,36.8
2019-02-17T01:04:27.453Z,36.8
2019-02-17T01:05:17.593Z,36.8
2019-02-17T01:06:06.232Z,36.8
2019-02-17T01:06:57.397Z,36.8
2019-02-17T01:07:47.430Z,36.8
2019-02-17T01:08:37.461Z,36.7
2019-02-17T01:09:27.802Z,36.7
2019-02-17T01:10:17.972Z,36.7
2019-02-17T01:11:07.164Z,36.7
2019-02-17T01:11:57.432Z,36.7
2019-02-17T01:12:47.474Z,36.7
2019-02-17T01:13:38.397Z,36.7
2019-02-17T01:14:27.865Z,36.7
2019-02-17T01:15:17.555Z,36.7
2019-02-17T01:16:06.877Z,36.6
2019-02-17T01:16:57.624Z,36.6
2019-02-17T01:17:47.053Z,36.6
2019-02-17T01:18:37.939Z,36.6
2019-02-17T01:19:28.775Z,36.6
2019-02-17T01:20:18.005Z,36.6
2019-02-17T01:21:07.769Z,36.6
2019-02-17T01:21:58.956Z,36.6
2019-02-17T01:22:48.716Z,36.6
2019-02-17T01:23:38.206Z,36.6
2019-02-17T01:24:27.454Z,36.6
2019-02-17T01:25:19.182Z,36.6
2019-02-17T01:26:08.941Z,36.6
2019-02-17T01:26:58.462Z,36.6
2019-02-17T01:27:48.815Z,36.6
2019-02-17T01:28:38.565Z,36.5
2019-02-17T01:29:28.961Z,36.6
2019-02-17T01:30:19.546Z,36.6
2019-02-17T01:31:11.259Z,36.5
2019-02-17T01:31:58.800Z,36.5
2019-02-17T01:32:49.423Z,36.5
2019-02-17T01:33:39.465Z,36.5
2019-02-17T01:34:29.254Z,36.5
2019-02-17T01:35:19.315Z,36.5
2019-02-17T01:36:08.857Z,36.5
2019-02-17T01:36:58.885Z,36.5
2019-02-17T01:37:49.768Z,36.5
2019-02-17T01:38:39.888Z,36.4
2019-02-17T01:39:29.604Z,36.4
2019-02-17T01:40:18.273Z,36.4
2019-02-17T01:41:09.709Z,36.4
2019-02-17T01:41:59.787Z,36.4
2019-02-17T01:42:49.849Z,36.4
2019-02-17T01:43:40.209Z,36.4
2019-02-17T01:44:28.869Z,36.4
2019-02-17T01:45:20.628Z,36.4
2019-02-17T01:46:10.113Z,36.4
2019-02-17T01:47:00.391Z,36.4
2019-02-17T01:47:50.168Z,36.4
2019-02-17T01:48:40.508Z,36.4
2019-02-17T01:49:30.611Z,36.4
2019-02-17T01:50:20.438Z,36.4
2019-02-17T01:51:10.196Z,36.4
2019-02-17T01:52:01.001Z,36.4
2019-02-17T01:52:50.568Z,36.4
2019-02-17T01:53:40.340Z,36.3
2019-02-17T01:54:30.980Z,36.3
2019-02-17T01:55:20.735Z,36.3
2019-02-17T01:56:10.245Z,36.3
2019-02-17T01:57:01.115Z,36.3
2019-02-17T01:57:50.873Z,36.3
2019-02-17T01:58:40.370Z,36.3
2019-02-17T01:59:36.397Z,36.3
2019-02-17T02:00:20.574Z,36.3
2019-02-17T02:01:10.599Z,36.3
2019-02-17T02:02:00.632Z,36.3
2019-02-17T02:02:51.489Z,36.3
2019-02-17T02:03:41.837Z,36.3
2019-02-17T02:04:31.613Z,36.3
2019-02-17T02:05:20.909Z,36.3
2019-02-17T02:06:09.852Z,36.3
2019-02-17T02:07:00.746Z,36.2
2019-02-17T02:07:50.791Z,36.2
2019-02-17T02:08:41.461Z,36.2
2019-02-17T02:09:30.954Z,36.2
2019-02-17T02:10:20.417Z,36.2
2019-02-17T02:11:11.802Z,36.2
2019-02-17T02:12:02.123Z,36.2
2019-02-17T02:12:51.643Z,36.2
2019-02-17T02:13:41.703Z,36.1
2019-02-17T02:14:32.033Z,36.1
2019-02-17T02:15:22.433Z,36.1
2019-02-17T02:16:11.165Z,36.1
2019-02-17T02:17:01.821Z,36.1
2019-02-17T02:17:51.913Z,36.1
2019-02-17T02:18:42.138Z,36.1
2019-02-17T02:19:31.613Z,36.1
2019-02-17T02:20:21.952Z,36.1
2019-02-17T02:21:12.772Z,36.1
2019-02-17T02:22:02.924Z,36.1
2019-02-17T02:22:52.025Z,36.1
2019-02-17T02:23:42.110Z,36.1
2019-02-17T02:24:32.740Z,36.1
2019-02-17T02:25:22.794Z,36.1
2019-02-17T02:26:13.390Z,36.1
2019-02-17T02:27:02.907Z,36.1
2019-02-17T02:27:52.969Z,36.1
2019-02-17T02:28:42.997Z,36
2019-02-17T02:29:42.975Z,36.1
2019-02-17T02:30:22.792Z,36.1
2019-02-17T02:31:12.999Z,36
2019-02-17T02:32:02.754Z,36
2019-02-17T02:32:53.348Z,36
2019-02-17T02:33:42.858Z,36
2019-02-17T02:34:33.133Z,36
2019-02-17T02:35:23.514Z,36
2019-02-17T02:36:12.764Z,36
2019-02-17T02:37:04.072Z,36
2019-02-17T02:37:53.136Z,35.9
2019-02-17T02:38:43.254Z,35.9
2019-02-17T02:39:33.769Z,35.9
2019-02-17T02:40:24.504Z,35.9
2019-02-17T02:41:14.161Z,35.9
2019-02-17T02:42:03.717Z,35.9
2019-02-17T02:42:54.320Z,35.9
2019-02-17T02:43:44.119Z,35.9
2019-02-17T02:44:33.883Z,35.9
2019-02-17T02:45:23.912Z,35.9
2019-02-17T02:46:13.982Z,35.9
2019-02-17T02:47:04.863Z,35.9
2019-02-17T02:47:54.060Z,35.9
2019-02-17T02:48:44.245Z,35.9
2019-02-17T02:49:34.187Z,35.9
2019-02-17T02:50:24.856Z,35.9
2019-02-17T02:51:14.895Z,35.9
2019-02-17T02:52:05.203Z,35.9
2019-02-17T02:52:54.217Z,35.9
2019-02-17T02:53:44.930Z,35.9
2019-02-17T02:54:35.116Z,35.8
2019-02-17T02:55:24.344Z,35.8
2019-02-17T02:56:15.473Z,35.8
2019-02-17T02:57:05.043Z,35.8
2019-02-17T02:57:54.278Z,35.8
2019-02-17T02:58:45.172Z,35.8
2019-02-17T02:59:34.635Z,35.8
2019-02-17T03:00:25.873Z,35.8
2019-02-17T03:01:15.625Z,35.8
2019-02-17T03:02:04.837Z,35.8
2019-02-17T03:02:56.006Z,35.8
2019-02-17T03:03:48.953Z,35.8
2019-02-17T03:04:36.080Z,35.8
2019-02-17T03:08:08.310Z,35.7
2019-02-17T03:08:58.104Z,35.7
2019-02-17T03:09:47.828Z,35.7
2019-02-17T03:10:37.641Z,35.7
2019-02-17T03:11:28.526Z,35.7
2019-02-17T03:12:18.281Z,35.7
2019-02-17T03:13:08.614Z,35.7
2019-02-17T03:13:58.226Z,35.7
2019-02-17T03:14:47.619Z,35.7
2019-02-17T03:15:37.929Z,35.6
2019-02-17T03:16:27.986Z,35.6
2019-02-17T03:17:18.156Z,35.6
2019-02-17T03:18:08.704Z,35.6
2019-02-17T03:18:58.161Z,35.6
2019-02-17T03:19:47.993Z,35.6
2019-02-17T03:20:38.826Z,35.6
2019-02-17T03:21:28.907Z,35.6
2019-02-17T03:22:19.031Z,35.6
2019-02-17T03:23:09.277Z,35.6
2019-02-17T03:23:58.506Z,35.6
2019-02-17T03:24:48.622Z,35.6
2019-02-17T03:25:38.369Z,35.6
2019-02-17T03:26:29.314Z,35.6
2019-02-17T03:27:19.431Z,35.6
2019-02-17T03:28:09.103Z,35.6
2019-02-17T03:28:59.726Z,35.6
2019-02-17T03:29:49.768Z,35.6
2019-02-17T03:30:40.056Z,35.6
2019-02-17T03:31:30.124Z,35.6
2019-02-17T03:32:19.926Z,35.6
2019-02-17T03:33:09.668Z,35.6
2019-02-17T03:33:59.456Z,35.5
2019-02-17T03:34:49.823Z,35.5
2019-02-17T03:35:40.031Z,35.5
2019-02-17T03:36:29.922Z,35.5
2019-02-17T03:37:20.542Z,35.5
2019-02-17T03:38:10.598Z,35.5
2019-02-17T03:39:00.128Z,35.4
2019-02-17T03:39:50.288Z,35.5
2019-02-17T03:40:39.660Z,35.4
2019-02-17T03:41:30.849Z,35.4
2019-02-17T03:42:20.034Z,35.4
2019-02-17T03:43:10.693Z,35.4
2019-02-17T03:44:00.862Z,35.4
2019-02-17T03:44:50.781Z,35.4
2019-02-17T03:45:40.297Z,35.4
2019-02-17T03:46:30.620Z,35.4
2019-02-17T03:47:20.497Z,35.4
2019-02-17T03:48:10.217Z,35.4
2019-02-17T03:49:00.756Z,35.4
2019-02-17T03:49:50.887Z,35.4
2019-02-17T03:50:40.346Z,35.4
2019-02-17T03:51:30.950Z,35.4
2019-02-17T03:52:20.752Z,35.4
2019-02-17T03:53:11.050Z,35.4
2019-02-17T03:54:00.289Z,35.4
2019-02-17T03:54:51.501Z,35.4
2019-02-17T03:55:41.834Z,35.3
2019-02-17T03:56:31.641Z,35.3
2019-02-17T03:57:21.659Z,35.3
2019-02-17T03:58:10.341Z,35.3
2019-02-17T03:59:01.563Z,35.3
2019-02-17T03:59:52.103Z,35.3
2019-02-17T04:00:41.059Z,35.3
2019-02-17T04:01:31.758Z,35.3
2019-02-17T04:02:21.693Z,35.3
2019-02-17T04:03:11.200Z,35.3
2019-02-17T04:04:01.915Z,35.3
2019-02-17T04:04:51.608Z,35.3
2019-02-17T04:05:41.181Z,35.3
2019-02-17T04:06:32.043Z,35.3
2019-02-17T04:07:22.066Z,35.3
2019-02-17T04:08:12.378Z,35.3
2019-02-17T04:09:02.287Z,35.3
2019-02-17T04:09:52.603Z,35.3
2019-02-17T04:10:42.060Z,35.3
2019-02-17T04:11:32.485Z,35.3
2019-02-17T04:12:22.410Z,35.2
2019-02-17T04:13:12.450Z,35.2
2019-02-17T04:14:02.293Z,35.2
2019-02-17T04:14:52.850Z,35.2
2019-02-17T04:15:42.632Z,35.2
2019-02-17T04:16:33.291Z,35.2
2019-02-17T04:17:23.073Z,35.2
2019-02-17T04:18:12.515Z,35.2
2019-02-17T04:19:02.280Z,35.2
2019-02-17T04:19:52.660Z,35.2
2019-02-17T04:20:43.045Z,35.1
2019-02-17T04:21:36.156Z,35.1
2019-02-17T04:22:23.404Z,35.1
2019-02-17T04:23:12.858Z,35.1
2019-02-17T04:24:02.642Z,35.1
2019-02-17T04:24:52.480Z,35.1
2019-02-17T04:25:43.447Z,35.1
2019-02-17T04:26:33.122Z,35.1
2019-02-17T04:27:23.196Z,35.1
2019-02-17T04:28:13.554Z,35.1
2019-02-17T04:29:03.659Z,35.1
2019-02-17T04:29:53.909Z,35.1
2019-02-17T04:30:43.635Z,35.1
2019-02-17T04:31:33.794Z,35.1
2019-02-17T04:32:23.821Z,35.1
2019-02-17T04:33:13.559Z,35.1
2019-02-17T04:34:03.737Z,35.1
2019-02-17T04:34:53.679Z,35.1
2019-02-17T04:35:43.838Z,35
2019-02-17T04:36:33.802Z,35
2019-02-17T04:37:24.146Z,35
2019-02-17T04:38:14.463Z,35
2019-02-17T04:39:03.998Z,35
2019-02-17T04:39:54.696Z,35
2019-02-17T04:40:44.346Z,35
2019-02-17T04:41:34.701Z,34.9
2019-02-17T04:42:24.472Z,34.9
2019-02-17T04:43:14.081Z,34.9
2019-02-17T04:44:03.770Z,34.9
2019-02-17T04:44:54.923Z,34.9
2019-02-17T04:45:44.453Z,34.9
2019-02-17T04:46:35.118Z,34.9
2019-02-17T04:47:24.290Z,34.9
2019-02-17T04:48:14.855Z,34.9
2019-02-17T04:49:05.585Z,34.9
2019-02-17T04:49:55.375Z,34.9
2019-02-17T04:50:45.311Z,34.9
2019-02-17T04:51:33.965Z,34.9
2019-02-17T04:52:25.435Z,34.9
2019-02-17T04:53:15.495Z,34.9
2019-02-17T04:54:05.293Z,34.9
2019-02-17T04:54:55.312Z,34.9
2019-02-17T04:55:45.151Z,34.9
2019-02-17T04:56:35.873Z,34.9
2019-02-17T04:57:25.292Z,34.9
2019-02-17T04:58:15.302Z,34.9
2019-02-17T04:59:05.656Z,34.9
2019-02-17T04:59:55.404Z,34.8
2019-02-17T05:00:46.836Z,34.8
2019-02-17T05:01:35.545Z,34.8
2019-02-17T05:02:26.163Z,34.8
2019-02-17T05:03:15.358Z,34.8
2019-02-17T05:04:05.435Z,34.8
2019-02-17T05:04:55.472Z,34.8
2019-02-17T05:05:46.474Z,34.8
2019-02-17T05:06:36.316Z,34.8
2019-02-17T05:07:26.384Z,34.8
2019-02-17T05:08:16.263Z,34.8
2019-02-17T05:09:06.123Z,34.8
2019-02-17T05:09:56.182Z,34.8
2019-02-17T05:10:46.251Z,34.8
2019-02-17T05:11:36.809Z,34.8
2019-02-17T05:12:25.999Z,34.8
2019-02-17T05:13:16.119Z,34.8
2019-02-17T05:14:06.689Z,34.8
2019-02-17T05:14:56.192Z,34.8
2019-02-17T05:15:46.791Z,34.7
2019-02-17T05:16:36.820Z,34.8
2019-02-17T05:17:27.162Z,34.7
2019-02-17T05:18:16.951Z,34.7
2019-02-17T05:19:06.804Z,34.7
2019-02-17T05:19:56.241Z,34.7
2019-02-17T05:20:46.917Z,34.7
2019-02-17T05:21:37.184Z,34.6
2019-02-17T05:22:26.656Z,34.7
2019-02-17T05:23:17.146Z,34.7
2019-02-17T05:24:07.427Z,34.6
2019-02-17T05:24:57.160Z,34.6
2019-02-17T05:25:47.210Z,34.6
2019-02-17T05:26:36.968Z,34.6
2019-02-17T05:27:27.659Z,34.6
2019-02-17T05:28:17.091Z,34.6
2019-02-17T05:29:08.009Z,34.6
2019-02-17T05:29:57.536Z,34.6
2019-02-17T05:30:58.851Z,34.6
2019-02-17T05:31:37.616Z,34.6
2019-02-17T05:32:27.641Z,34.6
2019-02-17T05:33:17.453Z,34.6
2019-02-17T05:34:07.543Z,34.6
2019-02-17T05:35:01.340Z,34.6
2019-02-17T05:35:48.221Z,34.6
2019-02-17T05:36:38.485Z,34.6
2019-02-17T05:37:28.575Z,34.6
2019-02-17T05:38:18.401Z,34.6
2019-02-17T05:39:07.863Z,34.6
2019-02-17T05:39:58.504Z,34.6
2019-02-17T05:40:49.058Z,34.5
2019-02-17T05:41:38.867Z,34.5
2019-02-17T05:42:28.878Z,34.5
2019-02-17T05:43:17.667Z,34.6
2019-02-17T05:44:08.231Z,34.5
2019-02-17T05:44:58.815Z,34.6
2019-02-17T05:45:49.475Z,34.5
2019-02-17T05:46:39.206Z,34.5
2019-02-17T05:47:28.952Z,34.5
2019-02-17T05:48:19.000Z,34.5
2019-02-17T05:49:08.842Z,34.4
2019-02-17T05:49:59.402Z,34.4
2019-02-17T05:50:49.024Z,34.4
2019-02-17T05:51:39.013Z,34.4
2019-02-17T05:52:28.811Z,34.4
2019-02-17T05:53:19.106Z,34.4
2019-02-17T05:54:09.710Z,34.4
2019-02-17T05:54:59.474Z,34.4
2019-02-17T05:55:49.275Z,34.4
2019-02-17T05:56:39.848Z,34.4
2019-02-17T05:57:29.902Z,34.4
2019-02-17T05:58:19.695Z,34.4
2019-02-17T05:59:09.747Z,34.4
2019-02-17T05:59:59.222Z,34.4
2019-02-17T06:00:49.907Z,34.4
2019-02-17T06:01:40.231Z,34.4
2019-02-17T06:02:28.931Z,34.4
2019-02-17T06:03:19.789Z,34.4
2019-02-17T06:04:10.409Z,34.4
2019-02-17T06:06:07.821Z,34.3
2019-02-17T06:06:57.304Z,34.3
2019-02-17T06:07:47.962Z,34.4
2019-02-17T06:08:37.946Z,34.3
2019-02-17T06:09:28.321Z,34.3
2019-02-17T06:10:17.852Z,34.3
2019-02-17T06:11:07.401Z,34.3
2019-02-17T06:11:58.751Z,34.3
2019-02-17T06:12:48.608Z,34.3
2019-02-17T06:13:38.119Z,34.3
2019-02-17T06:14:28.498Z,34.3
2019-02-17T06:15:17.885Z,34.3
2019-02-17T06:16:08.540Z,34.3
2019-02-17T06:16:58.560Z,34.3
2019-02-17T06:17:47.891Z,34.3
2019-02-17T06:18:38.076Z,34.3
2019-02-17T06:19:28.724Z,34.3
2019-02-17T06:20:18.766Z,34.3
2019-02-17T06:21:08.548Z,34.3
2019-02-17T06:21:59.140Z,34.3
2019-02-17T06:22:48.020Z,34.3
2019-02-17T06:23:38.300Z,34.3
2019-02-17T06:24:29.023Z,34.3
2019-02-17T06:25:19.027Z,34.3
2019-02-17T06:26:09.278Z,34.3
2019-02-17T06:26:59.496Z,34.3
2019-02-17T06:27:49.886Z,34.3
2019-02-17T06:28:39.630Z,34.3
2019-02-17T06:29:29.603Z,34.2
2019-02-17T06:30:19.446Z,34.2
2019-02-17T06:31:20.402Z,34.2
2019-02-17T06:31:59.570Z,34.2
2019-02-17T06:32:48.840Z,34.2
2019-02-17T06:33:38.849Z,34.2
2019-02-17T06:34:29.433Z,34.2
2019-02-17T06:35:20.087Z,34.2
2019-02-17T06:36:09.931Z,34.1
2019-02-17T06:36:59.630Z,34.1
2019-02-17T06:37:49.674Z,34.1
2019-02-17T06:38:39.481Z,34.1
2019-02-17T06:39:29.557Z,34.1
2019-02-17T06:40:19.317Z,34.2
2019-02-17T06:41:10.232Z,34.1
2019-02-17T06:42:00.557Z,34.1
2019-02-17T06:42:50.970Z,34.1
2019-02-17T06:43:40.419Z,34.1
2019-02-17T06:44:29.982Z,34.1
2019-02-17T06:45:22.639Z,34.1
2019-02-17T06:46:10.601Z,34.1
2019-02-17T06:47:00.111Z,34.1
2019-02-17T06:47:50.920Z,34.1
2019-02-17T06:48:40.496Z,34.1
2019-02-17T06:49:30.275Z,34.1
2019-02-17T06:50:20.586Z,34
2019-02-17T06:51:11.415Z,34
2019-02-17T06:52:00.952Z,34
2019-02-17T06:52:50.724Z,33.9
2019-02-17T06:53:41.414Z,33.9
2019-02-17T06:54:30.326Z,33.9
2019-02-17T06:55:20.679Z,33.9
2019-02-17T06:56:13.933Z,33.9
2019-02-17T06:57:00.450Z,33.9
2019-02-17T06:57:50.497Z,33.9
2019-02-17T06:58:41.987Z,33.9
2019-02-17T06:59:31.436Z,33.8
2019-02-17T07:00:20.398Z,33.8
2019-02-17T07:01:11.841Z,33.8
2019-02-17T07:02:01.599Z,33.8
2019-02-17T07:02:51.406Z,33.8
2019-02-17T07:03:42.528Z,33.8
2019-02-17T07:06:07.428Z,24.4
2019-02-17T07:06:57.488Z,32.3
2019-02-17T07:07:47.183Z,34.1
2019-02-17T07:08:37.830Z,33.8
2019-02-17T07:09:27.493Z,33.5
2019-02-17T07:10:18.083Z,33.3
2019-02-17T07:11:07.591Z,33.1
2019-02-17T07:12:00.656Z,32.9
2019-02-17T07:12:49.081Z,32.8
2019-02-17T07:13:38.028Z,32.8
2019-02-17T07:14:28.840Z,32.8
2019-02-17T07:15:18.068Z,32.9
2019-02-17T07:16:08.405Z,32.9
2019-02-17T07:16:58.185Z,33.1
2019-02-17T07:17:48.518Z,33.2
2019-02-17T07:18:39.125Z,33.3
2019-02-17T07:19:28.360Z,33.4
2019-02-17T07:20:18.240Z,33.6
2019-02-17T07:21:08.765Z,33.7
2019-02-17T07:21:57.957Z,33.8
2019-02-17T07:22:48.943Z,32.5
2019-02-17T07:23:39.307Z,28
2019-02-17T07:24:29.567Z,34.6
2019-02-17T07:25:30.609Z,39.3
2019-02-17T07:26:09.147Z,40.5
2019-02-17T07:26:59.470Z,39.6
2019-02-17T07:27:49.765Z,37.6
2019-02-17T07:28:39.517Z,36.3
2019-02-17T07:29:28.647Z,36.1
2019-02-17T07:30:19.647Z,36.4
2019-02-17T07:31:09.715Z,37.1
2019-02-17T07:31:59.798Z,38
2019-02-17T07:32:49.824Z,38.9
2019-02-17T07:33:39.410Z,39.4
2019-02-17T07:34:28.963Z,39.8
2019-02-17T07:35:19.808Z,39.8
2019-02-17T07:36:10.388Z,39.8
2019-02-17T07:37:00.184Z,39.9
2019-02-17T07:37:50.167Z,40
2019-02-17T07:38:39.669Z,40.2
2019-02-17T07:39:30.007Z,40.4
2019-02-17T07:40:20.369Z,40.8
2019-02-17T07:41:10.144Z,41
2019-02-17T07:41:59.655Z,41.3
2019-02-17T07:42:50.001Z,41.6
2019-02-17T07:43:40.289Z,41.7
2019-02-17T07:44:30.724Z,41.9
2019-02-17T07:45:20.681Z,42.1
2019-02-17T07:46:11.009Z,42.3
2019-02-17T07:47:00.240Z,42.4
2019-02-17T07:47:50.917Z,42.7
2019-02-17T07:48:40.686Z,42.9
2019-02-17T07:49:30.493Z,43.1
2019-02-17T07:50:20.198Z,43.3
2019-02-17T07:51:09.773Z,43.4
2019-02-17T07:51:59.751Z,43.6
2019-02-17T07:52:50.948Z,43.8
2019-02-17T07:53:40.771Z,43.9
2019-02-17T07:54:30.131Z,44
2019-02-17T07:55:20.543Z,44.2
2019-02-17T07:56:11.150Z,44.3
2019-02-17T07:57:01.102Z,44.4
2019-02-17T07:57:50.438Z,44.6
2019-02-17T07:58:41.321Z,44.6
2019-02-17T07:59:31.375Z,44.7
2019-02-17T08:00:21.186Z,44.8
2019-02-17T08:01:12.602Z,44.9
2019-02-17T08:02:01.243Z,45.1
2019-02-17T08:02:53.854Z,45.2
2019-02-17T08:03:41.113Z,45.3
2019-02-17T08:04:31.690Z,45.4
2019-02-17T08:05:21.230Z,45.6
2019-02-17T08:06:11.907Z,45.8
2019-02-17T08:07:01.965Z,45.9
2019-02-17T08:07:51.387Z,46.1
2019-02-17T08:08:42.267Z,46.4
2019-02-17T08:09:32.047Z,46.6
2019-02-17T08:10:21.017Z,46.8
2019-02-17T08:11:12.720Z,46.9
2019-02-17T08:12:02.272Z,47.1
2019-02-17T08:12:52.282Z,47.3
2019-02-17T08:13:42.206Z,47.4
2019-02-17T08:14:32.232Z,47.6
2019-02-17T08:15:22.532Z,47.8
2019-02-17T08:16:11.448Z,48
2019-02-17T08:17:01.797Z,48.2
2019-02-17T08:17:52.704Z,48.4
2019-02-17T08:18:43.054Z,48.6
2019-02-17T08:19:33.027Z,48.8
2019-02-17T08:20:22.849Z,48.9
2019-02-17T08:21:12.591Z,49.1
2019-02-17T08:22:02.500Z,49.2
2019-02-17T08:22:52.291Z,49.3
2019-02-17T08:23:43.050Z,49.4
2019-02-17T08:24:32.854Z,49.5
2019-02-17T08:25:27.480Z,49.6
2019-02-17T08:26:12.376Z,49.6
2019-02-17T08:27:05.121Z,49.8
2019-02-17T08:27:53.337Z,49.9
2019-02-17T08:28:45.769Z,50.1
2019-02-17T08:29:33.179Z,50.2
2019-02-17T08:30:23.231Z,50.3
2019-02-17T08:31:13.556Z,50.5
2019-02-17T08:32:03.396Z,50.6
2019-02-17T08:32:53.957Z,50.9
2019-02-17T08:33:42.880Z,51.1
2019-02-17T08:34:33.862Z,51.3
2019-02-17T08:35:23.298Z,51.6
2019-02-17T08:36:13.912Z,51.7
2019-02-17T08:37:03.951Z,51.9
2019-02-17T08:37:53.615Z,52
2019-02-17T08:38:44.143Z,52.1
2019-02-17T08:39:33.916Z,52.2
2019-02-17T08:40:23.645Z,52.3
2019-02-17T08:42:02.511Z,52.5
2019-02-17T08:42:54.688Z,52.7
2019-02-17T08:43:43.850Z,52.9
2019-02-17T08:44:33.644Z,53.1
2019-02-17T08:45:24.798Z,53.4
2019-02-17T08:46:14.295Z,53.5
2019-02-17T08:47:04.936Z,53.7
2019-02-17T08:47:53.590Z,53.9
2019-02-17T08:48:44.492Z,54.1
2019-02-17T08:49:34.527Z,54.3
2019-02-17T08:50:26.027Z,54.4
2019-02-17T08:51:13.901Z,54.6
2019-02-17T08:52:06.467Z,54.8
2019-02-17T08:52:54.370Z,54.9
2019-02-17T08:53:44.620Z,55.1
2019-02-17T08:54:34.499Z,55.3
2019-02-17T08:55:24.286Z,55.4
2019-02-17T08:56:14.795Z,55.6
2019-02-17T08:57:05.337Z,55.8
2019-02-17T08:57:55.415Z,55.9
2019-02-17T08:58:44.211Z,56.1
2019-02-17T08:59:35.007Z,56.1
2019-02-17T09:00:25.352Z,56.2
2019-02-17T09:01:14.451Z,56.3
2019-02-17T09:02:11.509Z,56.4
2019-02-17T09:02:54.262Z,56.6
2019-02-17T09:03:45.073Z,56.8
2019-02-17T09:04:35.649Z,56.9
2019-02-17T09:05:25.689Z,57.1
2019-02-17T09:06:14.939Z,57.3
2019-02-17T09:07:07.870Z,57.4
2019-02-17T09:07:55.576Z,57.6
2019-02-17T09:08:44.847Z,57.7
2019-02-17T09:09:35.430Z,57.9
2019-02-17T09:10:25.288Z,57.9
2019-02-17T09:11:15.278Z,58.1
2019-02-17T09:12:06.136Z,58.3
2019-02-17T09:12:56.197Z,58.4
2019-02-17T09:13:45.008Z,58.5
2019-02-17T09:14:35.871Z,58.7
2019-02-17T09:15:26.788Z,58.8
2019-02-17T09:16:15.361Z,58.9
2019-02-17T09:17:06.772Z,59
2019-02-17T09:17:56.273Z,59.1
2019-02-17T09:18:46.631Z,59.2
2019-02-17T09:19:36.381Z,59.3
2019-02-17T09:20:27.102Z,59.4
2019-02-17T09:21:16.806Z,59.5
2019-02-17T09:22:06.645Z,59.6
2019-02-17T09:22:56.626Z,59.7
2019-02-17T09:23:46.157Z,59.8
2019-02-17T09:24:37.003Z,59.9
2019-02-17T09:25:26.256Z,60
2019-02-17T09:26:16.026Z,60.1
2019-02-17T09:27:06.655Z,60.3
2019-02-17T09:27:56.692Z,60.4
2019-02-17T09:28:47.015Z,60.5
2019-02-17T09:29:37.360Z,60.6
2019-02-17T09:30:26.877Z,60.8
2019-02-17T09:31:17.160Z,60.8
2019-02-17T09:32:18.378Z,60.9
2019-02-17T09:32:56.802Z,61.1
2019-02-17T09:33:47.352Z,61.3
2019-02-17T09:34:37.757Z,61.4
2019-02-17T09:35:26.517Z,61.6
2019-02-17T09:36:17.050Z,61.7
2019-02-17T09:37:06.832Z,61.8
2019-02-17T09:37:57.664Z,61.9
2019-02-17T09:38:47.462Z,62
2019-02-17T09:39:38.237Z,62.1
2019-02-17T09:40:27.259Z,62.3
2019-02-17T09:41:17.609Z,62.4
2019-02-17T09:42:07.646Z,62.4
2019-02-17T09:42:58.729Z,62.6
2019-02-17T09:43:51.492Z,62.6
2019-02-17T09:44:38.864Z,62.8
2019-02-17T09:45:27.394Z,62.9
2019-02-17T09:46:18.686Z,62.9
2019-02-17T09:47:08.609Z,63.1
2019-02-17T09:47:58.674Z,63.2
2019-02-17T09:48:49.129Z,63.3
2019-02-17T09:49:38.636Z,63.4
2019-02-17T09:50:28.831Z,63.6
2019-02-17T09:51:17.999Z,63.7
2019-02-17T09:52:09.178Z,63.8
2019-02-17T09:52:57.578Z,63.9
2019-02-17T09:53:48.884Z,63.9
2019-02-17T09:54:38.871Z,64
2019-02-17T09:55:29.151Z,64
2019-02-17T09:56:18.893Z,64.1
2019-02-17T09:57:09.256Z,64.1
2019-02-17T09:57:59.518Z,64.2
2019-02-17T09:58:50.306Z,64.3
2019-02-17T09:59:39.328Z,64.3
2019-02-17T10:00:28.945Z,64.4
2019-02-17T10:01:19.800Z,64.4
2019-02-17T10:02:08.495Z,64.5
2019-02-17T10:02:59.093Z,64.6
2019-02-17T10:03:48.633Z,64.7
2019-02-17T10:04:39.270Z,64.8
2019-02-17T10:07:06.266Z,65
2019-02-17T10:07:56.965Z,65.1
2019-02-17T10:08:47.272Z,65.2
2019-02-17T10:09:37.035Z,65.3
2019-02-17T10:10:27.792Z,65.4
2019-02-17T10:11:17.377Z,65.4
2019-02-17T10:12:07.390Z,65.5
2019-02-17T10:12:57.492Z,65.5
2019-02-17T10:13:48.477Z,65.6
2019-02-17T10:14:37.642Z,65.6
2019-02-17T10:15:27.389Z,65.6
2019-02-17T10:16:18.015Z,65.6
2019-02-17T10:17:07.472Z,65.7
2019-02-17T10:17:57.632Z,65.8
2019-02-17T10:18:48.244Z,65.9
2019-02-17T10:19:37.941Z,65.9
2019-02-17T10:20:29.819Z,66
2019-02-17T10:21:17.782Z,66.1
2019-02-17T10:22:08.351Z,66.1
2019-02-17T10:22:58.213Z,66.2
2019-02-17T10:24:02.630Z,66.3
2019-02-17T10:24:38.029Z,66.3
2019-02-17T10:25:28.674Z,66.3
2019-02-17T10:26:17.942Z,66.4
2019-02-17T10:27:07.681Z,66.4
2019-02-17T10:27:57.981Z,66.4
2019-02-17T10:28:48.204Z,66.4
2019-02-17T10:29:38.916Z,66.4
2019-02-17T10:30:29.448Z,66.5
2019-02-17T10:31:18.288Z,66.6
2019-02-17T10:32:08.381Z,66.7
2019-02-17T10:32:58.323Z,66.8
2019-02-17T10:33:49.618Z,66.8
2019-02-17T10:34:38.816Z,66.8
2019-02-17T10:35:28.860Z,66.9
2019-02-17T10:36:19.104Z,66.9
2019-02-17T10:37:08.865Z,66.9
2019-02-17T10:37:59.483Z,66.9
2019-02-17T10:38:49.061Z,67.1
2019-02-17T10:39:39.283Z,67.1
2019-02-17T10:40:29.434Z,67.2
2019-02-17T10:41:19.450Z,67.3
2019-02-17T10:42:09.480Z,67.3
2019-02-17T10:42:59.816Z,67.3
2019-02-17T10:43:49.378Z,67.3
2019-02-17T10:44:39.955Z,67.4
2019-02-17T10:45:29.788Z,67.4
2019-02-17T10:46:19.602Z,67.4
2019-02-17T10:47:10.125Z,67.4
2019-02-17T10:48:00.498Z,67.5
2019-02-17T10:48:50.895Z,67.6
2019-02-17T10:49:39.460Z,67.6
2019-02-17T10:50:29.239Z,67.6
2019-02-17T10:51:19.895Z,67.7
2019-02-17T10:52:10.281Z,67.8
2019-02-17T10:53:00.518Z,67.9
2019-02-17T10:53:49.637Z,68
2019-02-17T10:54:40.660Z,68.1
2019-02-17T10:55:30.989Z,68.1
2019-02-17T10:56:20.762Z,68.1
2019-02-17T10:57:10.559Z,68.1
2019-02-17T10:58:00.831Z,68.1
2019-02-17T10:58:50.099Z,68.2
2019-02-17T10:59:41.451Z,68.2
2019-02-17T11:00:31.061Z,68.3
2019-02-17T11:01:21.024Z,68.3
2019-02-17T11:02:11.131Z,68.3
2019-02-17T11:03:01.231Z,68.3
2019-02-17T11:03:51.527Z,68.4
2019-02-17T11:04:41.034Z,68.4
2019-02-17T11:05:31.844Z,68.4
2019-02-17T11:06:21.499Z,68.4
2019-02-17T11:07:10.424Z,68.4
2019-02-17T11:08:01.819Z,68.4
2019-02-17T11:08:51.936Z,68.3
2019-02-17T11:09:41.764Z,68.3
2019-02-17T11:10:30.903Z,68.4
2019-02-17T11:11:21.016Z,68.4
2019-02-17T11:12:12.336Z,68.5
2019-02-17T11:13:01.398Z,68.6
2019-02-17T11:13:51.948Z,68.6
2019-02-17T11:14:41.376Z,68.6
2019-02-17T11:15:31.761Z,68.7
2019-02-17T11:16:22.396Z,68.7